Hauptseite
METAR-TAF:

METAR-TAF

Flughäfen :

Flughafen Nassau Lynden Pindling

Nassau, Bahamas

Breite: 25-03N, Länge: 077-28W, Höhe: 3 m

Beobachtung

Neuester Wetterbericht von vor 44 Minuten, um 02:00 UTC
Wind 9 kt aus Ost/Nordost
Temperatur 23°C
Luftfeuchtigkeit 57%
Luftdruck 1020 hPa
Sichtweite 10 km oder mehr
Aufgelockert bewölkt in der Höhe von 3500 ft

METAR: MYNN 230200Z 06009KT 9999 SCT035 23/14 A3011

Zeit: 22:44 (02:44 UTC)

Prognose

Neuester Wetterbericht von vor 3 Stunden und 44 Minuten, um 23:00 UTC
Gültige Prognose vom 23 um 00 UTC bis 23 um 24 UTC
Wind 10 kt aus Nordost
Sichtweite 10 km oder mehr
Leicht bewölkt in der Höhe von 4000 ft
Ab 23 um 1200 UTC
Wind 8 kt aus Ost/Nordost
Sichtweite 10 km oder mehr
Aufgelockert bewölkt in der Höhe von 2500 ft
Aufgelockert bewölkt in der Höhe von 4500 ft

TAF: MYNN 222300Z 2300/2324 05010KT 9999 FEW040 FM231200 07008KT 9999 SCT025 SCT045

Wetterbeobachtungen und Prognosen von mehr als 4000 Flughäfen (METAR und TAF Bericht).

Die verfügbaren Stationen werden durch gelbe und rote Markierungen auf der Karte dargestellt.

Führen Sie die Maus auf sie, um den Namen der Station zu sehen.

Darauf klicken, um die Beobachtung von Wetterbeobachtungen und Prognosen zu sehen.

Um die Karte zu ändern : klicken Sie auf den grünen Tasten mit einem schwarzen Kreuz Zum Vergrößern, auf den grünen Button mit einem Gedankenstrich zu verkleinern, oder auf die grünen Pfeile für benachbarte Karten.


METAR-TAF: